PWSweather.com
Personal Weather Stations
Station Observations
K4FB1
Clubhouse Heritage, Lakeland, FL 33812

Clubhouse HeritageLakeland, FL 33812

Lat: 27.969224, Lon: -81.897769

Elevation: 145

Station Type: Davis Vantage Pro2

http://www.ClubhouseWX.com

Latest ConditionsUpdated 2:05:00 AM EDT Sunday, May 1, 2016
Currently Today's Max Today's Min Today's Average
Temperature 70.2°F21.2°C 73.2°F22.9°C 70.2°F21.2°C 71.6°F22.0°C
Dew Point 66.1°F18.9°C 66.4°F19.1°C 65.5°F18.6°C 66.0°F18.9°C
Winds Calm Calm 4.0 mph SE6.4 kmh SE - 2.2 mph 3.5 kmh
Wind Gusts 2.0 mph3.2 kmh 9.0 mph14.5 kmh - -
Humidity 87% 87% 77% 82%
Pressure 30.00 in1015.9 mb 30.01 in1016.3 mb 30.00 in1015.9 mb -
Hour Temp Dew Point Humidity Winds Wind Gusts Pressure Precip Precip Rate Daily Precip Total
02:05 AM 70.2°F21.2°C 66.1°F18.9°C 87% Calm Calm 2.0 mph3.2 kmh 30.00 in1015.9 mb 0.00 in0.0 mm 0.00 in0.0 mm 0.00 in0.0 mm
02:00 AM 70.3°F21.3°C 65.9°F18.8°C 86% Calm Calm 2.0 mph3.2 kmh 30.00 in1015.9 mb 0.00 in0.0 mm 0.00 in0.0 mm 0.00 in0.0 mm
01:55 AM 70.4°F21.3°C 65.7°F18.7°C 85% Calm Calm 3.0 mph4.8 kmh 30.01 in1016.3 mb 0.00 in0.0 mm 0.00 in0.0 mm 0.00 in0.0 mm
01:50 AM 70.6°F21.4°C 65.9°F18.8°C 85% 1.0 mph SE1.6 kmh SE 3.0 mph4.8 kmh 30.01 in1016.3 mb 0.00 in0.0 mm 0.00 in0.0 mm 0.00 in0.0 mm
01:45 AM 70.8°F21.6°C 66.1°F18.9°C 85% 1.0 mph SE1.6 kmh SE 2.0 mph3.2 kmh 30.00 in1015.9 mb 0.00 in0.0 mm 0.00 in0.0 mm 0.00 in0.0 mm
01:40 AM 71.0°F21.7°C 66.3°F19.1°C 85% 1.0 mph SE1.6 kmh SE 5.0 mph8.0 kmh 30.00 in1015.9 mb 0.00 in0.0 mm 0.00 in0.0 mm 0.00 in0.0 mm
01:35 AM 71.1°F21.7°C 66.4°F19.1°C 85% 2.0 mph SE3.2 kmh SE 5.0 mph8.0 kmh 30.01 in1016.3 mb 0.00 in0.0 mm 0.00 in0.0 mm 0.00 in0.0 mm
01:30 AM 71.2°F21.8°C 66.1°F18.9°C 84% 2.0 mph SE3.2 kmh SE 6.0 mph9.7 kmh 30.00 in1015.9 mb 0.00 in0.0 mm 0.00 in0.0 mm 0.00 in0.0 mm
01:25 AM 71.3°F21.8°C 66.2°F19.0°C 84% 2.0 mph SE3.2 kmh SE 6.0 mph9.7 kmh 30.00 in1015.9 mb 0.00 in0.0 mm 0.00 in0.0 mm 0.00 in0.0 mm
01:20 AM 71.4°F21.9°C 66.3°F19.1°C 84% 2.0 mph SE3.2 kmh SE 7.0 mph11.3 kmh 30.00 in1015.9 mb 0.00 in0.0 mm 0.00 in0.0 mm 0.00 in0.0 mm
01:15 AM 71.5°F21.9°C 66.4°F19.1°C 84% 3.0 mph SE4.8 kmh SE 7.0 mph11.3 kmh 30.00 in1015.9 mb 0.00 in0.0 mm 0.00 in0.0 mm 0.00 in0.0 mm
01:10 AM 71.5°F21.9°C 66.1°F18.9°C 83% 3.0 mph SE4.8 kmh SE 7.0 mph11.3 kmh 30.00 in1015.9 mb 0.00 in0.0 mm 0.00 in0.0 mm 0.00 in0.0 mm
01:05 AM 71.5°F21.9°C 66.1°F18.9°C 83% 2.0 mph SE3.2 kmh SE 7.0 mph11.3 kmh 30.00 in1015.9 mb 0.00 in0.0 mm 0.00 in0.0 mm 0.00 in0.0 mm
01:00 AM 71.6°F22.0°C 66.2°F19.0°C 83% 3.0 mph SE4.8 kmh SE 9.0 mph14.5 kmh 30.00 in1015.9 mb 0.00 in0.0 mm 0.00 in0.0 mm 0.00 in0.0 mm
12:55 AM 71.7°F22.1°C 65.9°F18.8°C 82% 3.0 mph SE4.8 kmh SE 9.0 mph14.5 kmh 30.00 in1015.9 mb 0.00 in0.0 mm 0.00 in0.0 mm 0.00 in0.0 mm
12:50 AM 71.8°F22.1°C 66.0°F18.9°C 82% 3.0 mph SE4.8 kmh SE 7.0 mph11.3 kmh 30.00 in1015.9 mb 0.00 in0.0 mm 0.00 in0.0 mm 0.00 in0.0 mm
12:45 AM 71.9°F22.2°C 65.8°F18.8°C 81% 4.0 mph SE6.4 kmh SE 8.0 mph12.9 kmh 30.00 in1015.9 mb 0.00 in0.0 mm 0.00 in0.0 mm 0.00 in0.0 mm
12:40 AM 71.9°F22.2°C 65.8°F18.8°C 81% 3.0 mph SE4.8 kmh SE 8.0 mph12.9 kmh 30.00 in1015.9 mb 0.00 in0.0 mm 0.00 in0.0 mm 0.00 in0.0 mm
12:35 AM 72.0°F22.2°C 65.8°F18.8°C 81% 3.0 mph SE4.8 kmh SE 7.0 mph11.3 kmh 30.00 in1015.9 mb 0.00 in0.0 mm 0.00 in0.0 mm 0.00 in0.0 mm
12:30 AM 72.2°F22.3°C 65.7°F18.7°C 80% 3.0 mph SE4.8 kmh SE 7.0 mph11.3 kmh 30.00 in1015.9 mb 0.00 in0.0 mm 0.00 in0.0 mm 0.00 in0.0 mm
12:25 AM 72.3°F22.4°C 65.8°F18.8°C 80% 3.0 mph SE4.8 kmh SE 5.0 mph8.0 kmh 30.00 in1015.9 mb 0.00 in0.0 mm 0.00 in0.0 mm 0.00 in0.0 mm
12:20 AM 72.5°F22.5°C 65.6°F18.7°C 79% 3.0 mph SE4.8 kmh SE 6.0 mph9.7 kmh 30.00 in1015.9 mb 0.00 in0.0 mm 0.00 in0.0 mm 0.00 in0.0 mm
12:15 AM 72.7°F22.6°C 65.8°F18.8°C 79% 3.0 mph SE4.8 kmh SE 6.0 mph9.7 kmh 30.00 in1015.9 mb 0.00 in0.0 mm 0.00 in0.0 mm 0.00 in0.0 mm
12:10 AM 72.8°F22.7°C 65.5°F18.6°C 78% 2.0 mph SE3.2 kmh SE 6.0 mph9.7 kmh 30.00 in1015.9 mb 0.00 in0.0 mm 0.00 in0.0 mm 0.00 in0.0 mm
12:05 AM 73.1°F22.8°C 65.8°F18.8°C 78% 2.0 mph SE3.2 kmh SE 6.0 mph9.7 kmh 30.00 in1015.9 mb 0.00 in0.0 mm 0.00 in0.0 mm 0.00 in0.0 mm
12:00 AM 73.2°F22.9°C 65.6°F18.7°C 77% 2.0 mph ESE3.2 kmh ESE 8.0 mph12.9 kmh 30.00 in1015.9 mb 0.00 in0.0 mm 0.00 in0.0 mm 0.00 in0.0 mm